createdAt,value
2022-11-30T00:01:20.797Z,12.57
2022-11-30T00:03:48.654Z,10.48
2022-11-30T00:06:17.422Z,10.90
2022-11-30T00:08:44.834Z,10.52
2022-11-30T00:11:13.169Z,11.38
2022-11-30T00:13:40.646Z,10.98
2022-11-30T00:16:10.712Z,10.70
2022-11-30T00:18:38.221Z,10.07
2022-11-30T00:21:11.620Z,9.20
2022-11-30T00:23:39.930Z,10.15
2022-11-30T00:26:08.807Z,9.98
2022-11-30T00:28:39.765Z,10.32
2022-11-30T00:31:12.832Z,9.95
2022-11-30T00:33:43.363Z,9.10
2022-11-30T00:36:17.784Z,9.43
2022-11-30T00:38:45.306Z,8.60
2022-11-30T00:41:12.810Z,9.82
2022-11-30T00:43:40.109Z,9.85
2022-11-30T00:46:09.213Z,8.82
2022-11-30T00:48:36.911Z,9.40
2022-11-30T00:51:04.306Z,10.13
2022-11-30T00:53:31.580Z,9.00
2022-11-30T00:55:59.181Z,8.98
2022-11-30T00:58:29.125Z,9.05
2022-11-30T01:00:56.574Z,9.45
2022-11-30T01:03:23.770Z,9.05
2022-11-30T01:05:50.927Z,8.60
2022-11-30T01:08:18.070Z,8.68
2022-11-30T01:10:45.304Z,10.23
2022-11-30T01:13:13.023Z,10.52
2022-11-30T01:15:42.134Z,10.05
2022-11-30T01:18:09.422Z,12.25
2022-11-30T01:20:36.597Z,12.23
2022-11-30T01:23:03.792Z,13.10
2022-11-30T01:25:30.936Z,11.65
2022-11-30T01:27:58.045Z,11.32
2022-11-30T01:30:25.504Z,11.85
2022-11-30T01:32:52.794Z,13.88
2022-11-30T01:35:20.024Z,12.10
2022-11-30T01:37:47.224Z,10.70
2022-11-30T01:40:14.493Z,10.35
2022-11-30T01:42:47.074Z,11.35
2022-11-30T01:45:14.501Z,11.45
2022-11-30T01:47:44.915Z,9.68
2022-11-30T01:50:14.340Z,11.15
2022-11-30T01:52:43.871Z,10.93
2022-11-30T01:55:14.299Z,10.75
2022-11-30T01:57:48.560Z,10.68
2022-11-30T02:00:16.510Z,9.55
2022-11-30T02:03:00.229Z,10.57
2022-11-30T02:05:27.588Z,11.75
2022-11-30T02:07:54.912Z,11.20
2022-11-30T02:10:32.477Z,10.70
2022-11-30T02:13:18.610Z,11.95
2022-11-30T02:15:46.289Z,10.95
2022-11-30T02:18:16.257Z,10.85
2022-11-30T02:21:06.254Z,12.25
2022-11-30T02:23:41.877Z,12.60
2022-11-30T02:26:10.185Z,11.70
2022-11-30T02:28:43.682Z,10.95
2022-11-30T02:31:13.416Z,12.38
2022-11-30T02:33:41.871Z,12.70
2022-11-30T02:36:10.594Z,11.45
2022-11-30T02:38:39.300Z,12.25
2022-11-30T02:41:06.686Z,12.30
2022-11-30T02:43:34.569Z,12.57
2022-11-30T02:46:24.430Z,11.25
2022-11-30T02:49:04.103Z,12.52
2022-11-30T02:51:33.328Z,12.05
2022-11-30T02:54:00.970Z,12.27
2022-11-30T02:56:28.949Z,11.68
2022-11-30T02:58:56.273Z,11.90
2022-11-30T03:01:24.406Z,11.93
2022-11-30T03:03:51.828Z,11.25
2022-11-30T03:06:19.283Z,11.57
2022-11-30T03:08:46.556Z,11.95
2022-11-30T03:11:13.699Z,11.60
2022-11-30T03:13:40.957Z,12.63
2022-11-30T03:16:09.433Z,12.65
2022-11-30T03:18:36.939Z,12.35
2022-11-30T03:21:06.551Z,12.20
2022-11-30T03:23:34.069Z,10.90
2022-11-30T03:26:01.389Z,12.45
2022-11-30T03:28:28.638Z,11.70
2022-11-30T03:30:56.227Z,13.05
2022-11-30T03:33:23.321Z,11.98
2022-11-30T03:35:58.662Z,12.90
2022-11-30T03:38:25.819Z,12.15
2022-11-30T03:40:59.770Z,12.80
2022-11-30T03:43:27.098Z,12.82
2022-11-30T03:45:54.457Z,11.25
2022-11-30T03:48:21.825Z,12.10
2022-11-30T03:50:50.300Z,11.70
2022-11-30T03:53:21.629Z,11.70
2022-11-30T03:55:52.915Z,13.13
2022-11-30T03:58:20.545Z,12.73
2022-11-30T04:00:47.821Z,12.80
2022-11-30T04:03:15.098Z,13.40
2022-11-30T04:05:42.376Z,12.30
2022-11-30T04:08:09.992Z,12.35
2022-11-30T04:10:37.363Z,13.25
2022-11-30T04:13:04.739Z,13.02
2022-11-30T04:15:31.988Z,11.85
2022-11-30T04:17:59.478Z,13.18
2022-11-30T04:20:26.863Z,12.80
2022-11-30T04:22:54.171Z,13.02
2022-11-30T04:25:21.656Z,13.25
2022-11-30T04:27:48.866Z,13.27
2022-11-30T04:30:16.473Z,13.13
2022-11-30T04:32:43.849Z,12.75
2022-11-30T04:35:11.716Z,12.85
2022-11-30T04:37:44.773Z,11.63
2022-11-30T04:40:12.274Z,13.80
2022-11-30T04:42:42.791Z,12.60
2022-11-30T04:45:10.206Z,11.05
2022-11-30T04:47:37.325Z,12.00
2022-11-30T04:50:05.228Z,12.32
2022-11-30T04:52:32.545Z,13.70
2022-11-30T04:54:59.773Z,11.55
2022-11-30T04:57:27.181Z,13.00
2022-11-30T04:59:54.713Z,12.70
2022-11-30T05:02:22.088Z,12.35
2022-11-30T05:04:49.729Z,12.93
2022-11-30T05:07:17.378Z,12.07
2022-11-30T05:09:44.848Z,12.77
2022-11-30T05:12:12.039Z,12.52
2022-11-30T05:14:39.369Z,12.73
2022-11-30T05:17:06.768Z,12.95
2022-11-30T05:19:33.962Z,12.48
2022-11-30T05:22:01.225Z,13.20
2022-11-30T05:24:28.613Z,11.75
2022-11-30T05:26:55.847Z,13.30
2022-11-30T05:29:23.083Z,12.60
2022-11-30T05:31:51.725Z,12.40
2022-11-30T05:34:21.969Z,12.48
2022-11-30T05:36:49.329Z,12.00
2022-11-30T05:39:16.807Z,13.23
2022-11-30T05:41:44.176Z,12.27
2022-11-30T05:44:11.947Z,13.13
2022-11-30T05:46:41.085Z,11.90
2022-11-30T05:49:08.787Z,13.32
2022-11-30T05:51:36.145Z,13.05
2022-11-30T05:54:03.537Z,11.68
2022-11-30T05:56:30.654Z,12.52
2022-11-30T05:58:57.764Z,13.30
2022-11-30T06:01:26.878Z,12.90
2022-11-30T06:03:54.528Z,12.07
2022-11-30T06:06:22.303Z,12.85
2022-11-30T06:08:49.955Z,14.07
2022-11-30T06:11:18.303Z,13.75
2022-11-30T06:13:45.711Z,13.73
2022-11-30T06:16:13.333Z,12.75
2022-11-30T06:18:41.118Z,14.98
2022-11-30T06:21:09.611Z,13.20
2022-11-30T06:23:37.087Z,15.25
2022-11-30T06:26:07.797Z,14.55
2022-11-30T06:28:35.140Z,13.57
2022-11-30T06:31:03.031Z,14.93
2022-11-30T06:33:30.480Z,14.70
2022-11-30T06:35:58.026Z,14.98
2022-11-30T06:38:25.932Z,14.50
2022-11-30T06:40:53.975Z,13.38
2022-11-30T06:43:21.423Z,14.38
2022-11-30T06:45:48.877Z,13.48
2022-11-30T06:48:16.229Z,14.20
2022-11-30T06:50:49.764Z,13.93
2022-11-30T06:53:17.511Z,13.93
2022-11-30T06:55:44.664Z,14.65
2022-11-30T06:58:12.077Z,12.23
2022-11-30T07:00:39.614Z,13.75
2022-11-30T07:03:07.004Z,13.95
2022-11-30T07:05:35.815Z,15.90
2022-11-30T07:08:03.254Z,14.38
2022-11-30T07:10:30.603Z,14.82
2022-11-30T07:12:58.086Z,14.52
2022-11-30T07:15:25.458Z,14.05
2022-11-30T07:17:52.894Z,14.68
2022-11-30T07:20:20.088Z,14.38
2022-11-30T07:22:47.675Z,14.68
2022-11-30T07:25:33.734Z,14.20
2022-11-30T07:28:03.943Z,14.27
2022-11-30T07:30:32.105Z,15.63
2022-11-30T07:32:59.561Z,14.20
2022-11-30T07:35:27.281Z,17.55
2022-11-30T07:37:57.567Z,14.52
2022-11-30T07:40:24.934Z,14.13
2022-11-30T07:42:55.896Z,14.15
2022-11-30T07:45:23.147Z,13.50
2022-11-30T07:47:50.505Z,15.25
2022-11-30T07:50:17.796Z,14.82
2022-11-30T07:52:45.005Z,15.20
2022-11-30T07:55:12.390Z,13.52
2022-11-30T07:57:39.841Z,13.20
2022-11-30T08:00:09.786Z,13.20
2022-11-30T08:02:37.137Z,12.52
2022-11-30T08:05:04.690Z,13.55
2022-11-30T08:07:32.458Z,12.18
2022-11-30T08:09:59.613Z,12.25
2022-11-30T08:12:26.699Z,12.63
2022-11-30T08:15:18.633Z,12.63
2022-11-30T08:17:40.880Z,12.93
2022-11-30T08:20:08.856Z,13.45
2022-11-30T08:22:36.709Z,13.40
2022-11-30T08:25:04.167Z,14.15
2022-11-30T08:27:31.271Z,14.10
2022-11-30T08:29:58.396Z,13.20
2022-11-30T08:32:25.506Z,11.98
2022-11-30T08:34:52.565Z,12.45
2022-11-30T08:37:19.625Z,12.13
2022-11-30T08:39:46.736Z,16.83
2022-11-30T08:42:13.854Z,12.88
2022-11-30T08:44:40.956Z,12.82
2022-11-30T08:47:08.037Z,11.73
2022-11-30T08:49:35.164Z,11.73
2022-11-30T08:54:49.928Z,11.35
2022-11-30T08:57:18.128Z,10.95
2022-11-30T08:59:45.380Z,14.20
2022-11-30T09:02:14.243Z,13.85
2022-11-30T09:04:41.411Z,13.27
2022-11-30T09:07:09.551Z,11.55
2022-11-30T09:09:37.248Z,8.93
2022-11-30T09:12:04.395Z,8.60
2022-11-30T09:14:31.497Z,8.73
2022-11-30T09:16:58.599Z,9.35
2022-11-30T09:19:26.056Z,8.90
2022-11-30T09:21:53.162Z,9.23
2022-11-30T09:24:20.983Z,8.95
2022-11-30T09:26:48.097Z,7.80
2022-11-30T09:29:15.252Z,7.88
2022-11-30T09:31:42.373Z,7.38
2022-11-30T09:34:11.445Z,8.32
2022-11-30T09:36:38.873Z,7.60
2022-11-30T09:39:06.683Z,7.05
2022-11-30T09:41:54.114Z,7.22
2022-11-30T09:44:40.355Z,7.28
2022-11-30T09:47:40.310Z,7.10
2022-11-30T09:50:20.235Z,6.68
2022-11-30T09:52:49.888Z,6.80
2022-11-30T09:55:23.789Z,6.88
2022-11-30T09:57:54.231Z,7.10
2022-11-30T10:00:25.466Z,6.57
2022-11-30T10:02:56.725Z,6.20
2022-11-30T10:05:25.708Z,6.65
2022-11-30T10:07:55.999Z,6.15
2022-11-30T10:10:32.196Z,6.32
2022-11-30T10:13:20.526Z,6.85
2022-11-30T10:15:48.447Z,6.70
2022-11-30T10:18:24.968Z,7.35
2022-11-30T10:21:10.948Z,5.95
2022-11-30T10:23:46.569Z,6.43
2022-11-30T10:26:16.689Z,7.47
2022-11-30T10:28:52.426Z,6.15
2022-11-30T10:31:29.443Z,7.20
2022-11-30T10:33:57.990Z,7.43
2022-11-30T10:36:37.143Z,7.65
2022-11-30T10:39:09.671Z,7.07
2022-11-30T10:41:52.529Z,6.82
2022-11-30T10:44:23.041Z,6.40
2022-11-30T10:46:58.808Z,7.10
2022-11-30T10:49:26.614Z,7.15
2022-11-30T10:51:55.286Z,7.45
2022-11-30T10:54:23.345Z,7.65
2022-11-30T10:56:50.462Z,7.10
2022-11-30T10:59:36.084Z,7.97
2022-11-30T11:02:03.553Z,7.32
2022-11-30T11:04:30.915Z,7.93
2022-11-30T11:07:11.116Z,7.85
2022-11-30T11:09:40.506Z,8.20
2022-11-30T11:12:15.843Z,8.45
2022-11-30T11:14:43.314Z,8.15
2022-11-30T11:17:19.657Z,8.23
2022-11-30T11:19:48.033Z,8.00
2022-11-30T11:22:30.473Z,7.68
2022-11-30T11:25:21.628Z,8.18
2022-11-30T11:27:56.475Z,7.88
2022-11-30T11:30:26.615Z,7.78
2022-11-30T11:32:59.873Z,7.75
2022-11-30T11:35:34.311Z,7.35
2022-11-30T11:38:01.389Z,6.63
2022-11-30T11:40:28.529Z,7.32
2022-11-30T11:42:59.748Z,7.13
2022-11-30T11:45:28.626Z,6.65
2022-11-30T11:48:03.352Z,6.80
2022-11-30T11:51:05.499Z,7.25
2022-11-30T11:53:24.893Z,7.55
2022-11-30T11:56:00.861Z,6.30
2022-11-30T11:58:37.753Z,6.47
2022-11-30T12:01:37.907Z,6.47
2022-11-30T12:04:01.250Z,6.90
2022-11-30T12:06:28.577Z,7.13
2022-11-30T12:09:05.853Z,6.50
2022-11-30T12:11:39.393Z,7.90
2022-11-30T12:14:10.113Z,7.00
2022-11-30T12:16:54.121Z,7.28
2022-11-30T12:19:23.422Z,7.18
2022-11-30T12:22:02.510Z,7.13
2022-11-30T12:24:29.532Z,7.65
2022-11-30T12:26:56.687Z,7.70
2022-11-30T12:29:46.891Z,8.25
2022-11-30T12:32:20.817Z,8.95
2022-11-30T12:35:04.071Z,9.30
2022-11-30T12:37:43.041Z,8.82
2022-11-30T12:40:32.008Z,8.55
2022-11-30T12:43:08.512Z,8.90
2022-11-30T12:45:38.225Z,8.30
2022-11-30T12:48:24.239Z,8.93
2022-11-30T12:50:57.496Z,10.63
2022-11-30T12:53:34.573Z,8.63
2022-11-30T12:56:01.591Z,8.63
2022-11-30T12:58:28.862Z,9.13
2022-11-30T13:01:02.099Z,9.43
2022-11-30T13:03:40.500Z,9.52
2022-11-30T13:06:14.276Z,8.63
2022-11-30T13:08:59.884Z,10.15
2022-11-30T13:11:33.121Z,8.80
2022-11-30T13:14:00.889Z,7.88
2022-11-30T13:16:29.346Z,9.93
2022-11-30T13:18:59.401Z,9.23
2022-11-30T13:21:32.838Z,8.68
2022-11-30T13:24:20.133Z,9.40
2022-11-30T13:26:57.892Z,8.73
2022-11-30T13:29:25.114Z,8.70
2022-11-30T13:32:27.496Z,8.57
2022-11-30T13:35:16.968Z,9.07
2022-11-30T13:37:44.048Z,9.80
2022-11-30T13:40:22.402Z,8.35
2022-11-30T13:42:51.890Z,8.30
2022-11-30T13:45:26.491Z,8.35
2022-11-30T13:47:54.764Z,8.80
2022-11-30T13:50:27.529Z,8.90
2022-11-30T13:53:01.578Z,8.02
2022-11-30T13:55:34.866Z,8.70
2022-11-30T13:58:02.058Z,8.18
2022-11-30T14:00:32.441Z,9.15
2022-11-30T14:03:39.017Z,7.20
2022-11-30T14:06:06.605Z,7.97
2022-11-30T14:08:35.262Z,9.18
2022-11-30T14:11:18.100Z,9.05
2022-11-30T14:13:45.355Z,9.25
2022-11-30T14:16:22.133Z,8.88
2022-11-30T14:18:49.626Z,8.32
2022-11-30T14:21:19.702Z,9.90
2022-11-30T14:23:53.196Z,9.15
2022-11-30T14:26:24.373Z,9.68
2022-11-30T14:28:51.770Z,10.02
2022-11-30T14:31:24.877Z,8.88
2022-11-30T14:34:01.075Z,9.32
2022-11-30T14:36:34.004Z,9.35
2022-11-30T14:39:01.442Z,10.52
2022-11-30T14:41:29.920Z,10.80
2022-11-30T14:43:59.987Z,11.55
2022-11-30T14:46:27.790Z,11.98
2022-11-30T14:49:04.977Z,10.27
2022-11-30T14:51:32.622Z,10.52
2022-11-30T14:54:06.464Z,10.90
2022-11-30T14:56:53.854Z,11.75
2022-11-30T14:59:39.684Z,11.02
2022-11-30T15:02:08.414Z,12.27
2022-11-30T15:04:37.193Z,12.48
2022-11-30T15:07:04.501Z,12.38
2022-11-30T15:09:33.245Z,11.80
2022-11-30T15:12:00.642Z,13.27
2022-11-30T15:14:27.897Z,13.00
2022-11-30T15:16:57.137Z,13.00
2022-11-30T15:19:32.050Z,12.38
2022-11-30T15:21:59.707Z,13.20
2022-11-30T15:24:29.221Z,13.00
2022-11-30T15:27:10.236Z,13.05
2022-11-30T15:29:44.151Z,13.73
2022-11-30T15:32:18.858Z,14.23
2022-11-30T15:34:53.511Z,13.90
2022-11-30T15:37:34.272Z,14.85
2022-11-30T15:40:02.500Z,16.17
2022-11-30T15:42:31.790Z,13.95
2022-11-30T15:45:28.466Z,13.88
2022-11-30T15:47:56.461Z,14.93
2022-11-30T15:50:29.930Z,14.50
2022-11-30T15:53:04.798Z,14.95
2022-11-30T15:55:45.348Z,14.85
2022-11-30T15:58:27.518Z,15.80
2022-11-30T16:03:22.234Z,14.93
2022-11-30T16:05:59.514Z,15.63
2022-11-30T16:08:27.205Z,15.88
2022-11-30T16:10:55.582Z,15.27
2022-11-30T16:13:23.793Z,15.68
2022-11-30T16:15:51.868Z,15.65
2022-11-30T16:18:26.522Z,16.33
2022-11-30T16:20:55.215Z,16.45
2022-11-30T16:23:22.389Z,16.40
2022-11-30T16:25:50.397Z,14.32
2022-11-30T16:28:18.747Z,15.93
2022-11-30T16:30:46.376Z,15.95
2022-11-30T16:33:18.051Z,16.00
2022-11-30T16:35:49.075Z,16.80
2022-11-30T16:38:17.097Z,16.98
2022-11-30T16:40:44.317Z,17.10
2022-11-30T16:43:11.819Z,17.42
2022-11-30T16:45:39.697Z,18.20
2022-11-30T16:48:07.379Z,17.65
2022-11-30T16:50:35.046Z,17.67
2022-11-30T16:53:02.672Z,17.85
2022-11-30T16:55:31.295Z,17.40
2022-11-30T16:57:58.706Z,17.52
2022-11-30T17:00:26.117Z,17.77
2022-11-30T17:02:58.192Z,17.10
2022-11-30T17:05:25.412Z,16.65
2022-11-30T17:07:52.856Z,16.75
2022-11-30T17:10:20.668Z,16.73
2022-11-30T17:12:47.828Z,17.27
2022-11-30T17:15:16.762Z,17.65
2022-11-30T17:17:43.929Z,15.88
2022-11-30T17:20:11.487Z,15.82
2022-11-30T17:22:39.763Z,17.15
2022-11-30T17:25:09.235Z,15.40
2022-11-30T17:27:36.332Z,15.77
2022-11-30T17:30:03.692Z,16.42
2022-11-30T17:32:30.916Z,15.50
2022-11-30T17:34:58.060Z,16.58
2022-11-30T17:37:25.159Z,18.50
2022-11-30T17:39:52.300Z,16.33
2022-11-30T17:42:19.661Z,16.25
2022-11-30T17:44:47.366Z,16.80
2022-11-30T17:47:14.619Z,15.40
2022-11-30T17:49:42.846Z,16.00
2022-11-30T17:52:10.166Z,15.85
2022-11-30T17:54:37.212Z,16.83
2022-11-30T17:57:04.416Z,14.75
2022-11-30T17:59:31.465Z,15.45
2022-11-30T18:01:58.682Z,16.52
2022-11-30T18:04:25.851Z,14.95
2022-11-30T18:06:52.905Z,15.55
2022-11-30T18:09:20.012Z,17.02
2022-11-30T18:11:47.251Z,14.52
2022-11-30T18:14:14.355Z,15.48
2022-11-30T18:16:41.987Z,15.48
2022-11-30T18:19:14.977Z,14.65
2022-11-30T18:21:46.331Z,16.05
2022-11-30T18:24:13.482Z,15.05
2022-11-30T18:26:40.922Z,14.45
2022-11-30T18:29:08.365Z,16.75
2022-11-30T18:31:36.272Z,16.63
2022-11-30T18:34:05.502Z,16.90
2022-11-30T18:36:32.818Z,16.92
2022-11-30T18:39:00.086Z,16.38
2022-11-30T18:41:28.621Z,16.10
2022-11-30T18:43:55.869Z,17.60
2022-11-30T18:46:23.330Z,15.75
2022-11-30T18:48:51.134Z,17.08
2022-11-30T18:51:25.454Z,14.95
2022-11-30T18:53:58.367Z,16.33
2022-11-30T18:56:26.725Z,15.23
2022-11-30T18:58:58.029Z,16.35
2022-11-30T19:01:25.532Z,15.57
2022-11-30T19:03:53.431Z,14.77
2022-11-30T19:06:21.289Z,15.13
2022-11-30T19:08:48.482Z,15.63
2022-11-30T19:11:16.188Z,12.93
2022-11-30T19:13:43.498Z,13.93
2022-11-30T19:16:12.154Z,14.60
2022-11-30T19:18:39.339Z,13.77
2022-11-30T19:21:10.503Z,15.63
2022-11-30T19:23:38.414Z,13.50
2022-11-30T19:26:06.296Z,14.57
2022-11-30T19:28:33.889Z,16.00
2022-11-30T19:31:01.437Z,15.32
2022-11-30T19:33:28.649Z,14.70
2022-11-30T19:36:00.736Z,14.10
2022-11-30T19:40:55.160Z,15.13
2022-11-30T19:43:22.313Z,14.52
2022-11-30T19:45:49.584Z,15.55
2022-11-30T19:48:16.689Z,14.63
2022-11-30T19:50:43.884Z,14.75
2022-11-30T19:53:11.072Z,13.95
2022-11-30T19:55:41.057Z,15.52
2022-11-30T19:58:08.258Z,15.80
2022-11-30T20:00:35.466Z,14.55
2022-11-30T20:03:09.595Z,14.60
2022-11-30T20:05:37.555Z,13.80
2022-11-30T20:08:05.608Z,14.90
2022-11-30T20:10:32.804Z,13.93
2022-11-30T20:12:59.917Z,13.93
2022-11-30T20:15:26.983Z,14.95
2022-11-30T20:17:54.031Z,12.55
2022-11-30T20:20:21.163Z,13.15
2022-11-30T20:22:48.324Z,12.18
2022-11-30T20:25:15.435Z,13.68
2022-11-30T20:27:42.644Z,15.70
2022-11-30T20:30:10.041Z,13.05
2022-11-30T20:32:40.422Z,13.43
2022-11-30T20:35:07.796Z,15.02
2022-11-30T20:37:34.995Z,14.05
2022-11-30T20:40:02.281Z,14.43
2022-11-30T20:42:29.331Z,14.25
2022-11-30T20:44:56.453Z,13.27
2022-11-30T20:47:23.929Z,12.65
2022-11-30T20:49:51.045Z,13.75
2022-11-30T20:52:18.280Z,14.55
2022-11-30T20:54:45.514Z,14.13
2022-11-30T20:57:12.817Z,13.95
2022-11-30T20:59:39.953Z,14.80
2022-11-30T21:02:07.140Z,13.65
2022-11-30T21:04:34.200Z,15.10
2022-11-30T21:07:01.266Z,14.27
2022-11-30T21:09:28.376Z,15.02
2022-11-30T21:11:55.510Z,14.50
2022-11-30T21:14:23.147Z,15.38
2022-11-30T21:16:50.295Z,13.65
2022-11-30T21:19:17.833Z,14.57
2022-11-30T21:21:44.986Z,14.48
2022-11-30T21:24:12.502Z,14.13
2022-11-30T21:26:40.777Z,13.07
2022-11-30T21:29:10.582Z,14.95
2022-11-30T21:31:37.890Z,15.05
2022-11-30T21:34:05.399Z,13.45
2022-11-30T21:36:32.746Z,16.63
2022-11-30T21:39:05.592Z,14.68
2022-11-30T21:41:34.199Z,16.15
2022-11-30T21:44:01.364Z,14.40
2022-11-30T21:46:28.628Z,15.40
2022-11-30T21:48:55.834Z,15.88
2022-11-30T21:51:24.352Z,17.15
2022-11-30T21:53:52.981Z,15.48
2022-11-30T21:56:22.097Z,16.17
2022-11-30T21:58:49.758Z,16.25
2022-11-30T22:01:25.264Z,14.98
2022-11-30T22:03:54.399Z,14.73
2022-11-30T22:06:21.566Z,16.52
2022-11-30T22:08:49.004Z,16.75
2022-11-30T22:11:17.596Z,15.93
2022-11-30T22:13:45.241Z,15.48
2022-11-30T22:16:14.230Z,15.80
2022-11-30T22:18:41.939Z,16.30
2022-11-30T22:21:13.556Z,15.95
2022-11-30T22:23:41.996Z,16.10
2022-11-30T22:26:09.346Z,16.05
2022-11-30T22:28:36.541Z,17.13
2022-11-30T22:31:04.993Z,17.67
2022-11-30T22:33:33.386Z,15.40
2022-11-30T22:36:01.232Z,14.60
2022-11-30T22:38:29.457Z,14.73
2022-11-30T22:40:56.720Z,14.05
2022-11-30T22:43:24.197Z,15.80
2022-11-30T22:45:51.508Z,15.50
2022-11-30T22:48:18.727Z,17.10
2022-11-30T22:50:45.892Z,15.40
2022-11-30T22:53:13.313Z,15.80
2022-11-30T22:55:45.068Z,14.93
2022-11-30T22:58:15.286Z,15.20
2022-11-30T23:00:42.399Z,15.63
2022-11-30T23:03:09.580Z,16.02
2022-11-30T23:05:36.731Z,15.02
2022-11-30T23:08:03.935Z,15.57
2022-11-30T23:10:31.053Z,15.05
2022-11-30T23:12:59.921Z,14.20
2022-11-30T23:15:27.320Z,13.88
2022-11-30T23:17:54.385Z,13.50
2022-11-30T23:20:22.487Z,14.82
2022-11-30T23:22:49.526Z,14.95
2022-11-30T23:25:17.145Z,14.68
2022-11-30T23:27:44.261Z,14.60
2022-11-30T23:30:11.495Z,15.45
2022-11-30T23:32:38.659Z,13.95
2022-11-30T23:35:05.879Z,15.73
2022-11-30T23:37:32.952Z,14.68
2022-11-30T23:39:59.970Z,16.33
2022-11-30T23:42:27.095Z,15.50
2022-11-30T23:44:57.428Z,13.93
2022-11-30T23:47:24.493Z,14.00
2022-11-30T23:49:51.551Z,14.40
2022-11-30T23:52:18.613Z,14.05
2022-11-30T23:54:45.767Z,14.20
2022-11-30T23:57:12.796Z,14.45
2022-11-30T23:59:39.882Z,14.57
